sensor_id;sensor_type;location;lat;lon;timestamp;pressure;altitude;pressure_sealevel;temperature;humidity
13690;BME280;6917;52.194;9.894;2022-09-06T00:01:39;100691.81;;;19.13;71.90
13690;BME280;6917;52.194;9.894;2022-09-06T00:04:05;100693.78;;;19.12;72.11
13690;BME280;6917;52.194;9.894;2022-09-06T00:06:30;100687.03;;;19.10;72.14
13690;BME280;6917;52.194;9.894;2022-09-06T00:08:56;100677.88;;;19.09;72.20
13690;BME280;6917;52.194;9.894;2022-09-06T00:11:21;100676.94;;;19.01;72.63
13690;BME280;6917;52.194;9.894;2022-09-06T00:13:46;100682.47;;;19.01;72.65
13690;BME280;6917;52.194;9.894;2022-09-06T00:16:15;100683.09;;;18.95;72.80
13690;BME280;6917;52.194;9.894;2022-09-06T00:18:41;100686.72;;;18.95;72.86
13690;BME280;6917;52.194;9.894;2022-09-06T00:21:19;100690.91;;;18.89;73.32
13690;BME280;6917;52.194;9.894;2022-09-06T00:23:45;100692.25;;;18.95;73.21
13690;BME280;6917;52.194;9.894;2022-09-06T00:26:10;100709.91;;;18.91;73.24
13690;BME280;6917;52.194;9.894;2022-09-06T00:28:36;100708.75;;;18.92;73.22
13690;BME280;6917;52.194;9.894;2022-09-06T00:31:16;100700.81;;;18.90;73.29
13690;BME280;6917;52.194;9.894;2022-09-06T00:33:42;100693.97;;;18.84;73.27
13690;BME280;6917;52.194;9.894;2022-09-06T00:36:08;100682.09;;;18.84;73.54
13690;BME280;6917;52.194;9.894;2022-09-06T00:38:34;100678.78;;;18.78;73.58
13690;BME280;6917;52.194;9.894;2022-09-06T00:41:00;100686.22;;;18.74;73.64
13690;BME280;6917;52.194;9.894;2022-09-06T00:43:26;100690.44;;;18.68;73.90
13690;BME280;6917;52.194;9.894;2022-09-06T00:45:52;100698.63;;;18.64;74.02
13690;BME280;6917;52.194;9.894;2022-09-06T00:48:18;100700.59;;;18.64;74.26
13690;BME280;6917;52.194;9.894;2022-09-06T00:50:45;100708.28;;;18.70;74.23
13690;BME280;6917;52.194;9.894;2022-09-06T00:53:12;100710.50;;;18.65;74.16
13690;BME280;6917;52.194;9.894;2022-09-06T00:55:38;100707.03;;;18.68;74.08
13690;BME280;6917;52.194;9.894;2022-09-06T00:58:05;100712.56;;;18.68;74.34
13690;BME280;6917;52.194;9.894;2022-09-06T01:00:31;100711.84;;;18.71;74.34
13690;BME280;6917;52.194;9.894;2022-09-06T01:02:56;100716.28;;;18.76;74.32
13690;BME280;6917;52.194;9.894;2022-09-06T01:05:29;100711.56;;;18.76;74.25
13690;BME280;6917;52.194;9.894;2022-09-06T01:09:02;100711.03;;;18.70;74.53
13690;BME280;6917;52.194;9.894;2022-09-06T01:21:44;100714.16;;;18.53;75.26
13690;BME280;6917;52.194;9.894;2022-09-06T01:29:26;100686.69;;;18.13;80.65
13690;BME280;6917;52.194;9.894;2022-09-06T01:32:24;100673.00;;;17.89;84.23
13690;BME280;6917;52.194;9.894;2022-09-06T01:34:57;100664.34;;;17.74;86.37
13690;BME280;6917;52.194;9.894;2022-09-06T01:37:27;100670.31;;;17.76;87.34
13690;BME280;6917;52.194;9.894;2022-09-06T01:39:52;100660.41;;;17.75;88.18
13690;BME280;6917;52.194;9.894;2022-09-06T01:42:26;100651.38;;;17.63;89.29
13690;BME280;6917;52.194;9.894;2022-09-06T01:45:00;100653.16;;;17.55;89.88
13690;BME280;6917;52.194;9.894;2022-09-06T01:58:41;100640.31;;;17.07;92.91
13690;BME280;6917;52.194;9.894;2022-09-06T02:01:12;100640.50;;;16.98;93.34
13690;BME280;6917;52.194;9.894;2022-09-06T02:06:26;100644.84;;;16.99;93.86
13690;BME280;6917;52.194;9.894;2022-09-06T02:08:59;100644.84;;;16.99;93.44
13690;BME280;6917;52.194;9.894;2022-09-06T02:11:29;100648.22;;;16.92;92.65
13690;BME280;6917;52.194;9.894;2022-09-06T02:14:03;100635.31;;;16.97;92.20
13690;BME280;6917;52.194;9.894;2022-09-06T02:16:32;100631.66;;;16.92;91.78
13690;BME280;6917;52.194;9.894;2022-09-06T02:19:03;100640.84;;;16.97;92.34
13690;BME280;6917;52.194;9.894;2022-09-06T02:21:35;100643.78;;;17.04;92.90
13690;BME280;6917;52.194;9.894;2022-09-06T02:24:05;100646.47;;;17.00;93.36
13690;BME280;6917;52.194;9.894;2022-09-06T02:26:35;100659.66;;;17.07;92.95
13690;BME280;6917;52.194;9.894;2022-09-06T02:29:02;100661.38;;;17.11;92.71
13690;BME280;6917;52.194;9.894;2022-09-06T02:31:31;100652.44;;;17.02;92.11
13690;BME280;6917;52.194;9.894;2022-09-06T02:33:57;100659.13;;;16.89;92.04
13690;BME280;6917;52.194;9.894;2022-09-06T02:36:23;100649.94;;;16.85;92.23
13690;BME280;6917;52.194;9.894;2022-09-06T02:38:49;100642.16;;;16.75;93.38
13690;BME280;6917;52.194;9.894;2022-09-06T02:41:17;100642.50;;;16.73;94.23
13690;BME280;6917;52.194;9.894;2022-09-06T02:43:45;100629.28;;;16.66;93.95
13690;BME280;6917;52.194;9.894;2022-09-06T02:46:10;100636.75;;;16.66;93.56
13690;BME280;6917;52.194;9.894;2022-09-06T02:48:36;100628.81;;;16.64;92.58
13690;BME280;6917;52.194;9.894;2022-09-06T02:51:03;100632.03;;;16.66;92.04
13690;BME280;6917;52.194;9.894;2022-09-06T02:53:29;100634.78;;;16.66;91.12
13690;BME280;6917;52.194;9.894;2022-09-06T02:55:54;100637.53;;;16.66;89.83
13690;BME280;6917;52.194;9.894;2022-09-06T02:58:21;100640.31;;;16.66;89.23
13690;BME280;6917;52.194;9.894;2022-09-06T03:00:46;100664.13;;;16.71;88.20
13690;BME280;6917;52.194;9.894;2022-09-06T03:03:11;100664.13;;;16.71;87.23
13690;BME280;6917;52.194;9.894;2022-09-06T03:05:37;100649.97;;;16.73;86.55
13690;BME280;6917;52.194;9.894;2022-09-06T03:08:02;100658.16;;;16.69;86.64
13690;BME280;6917;52.194;9.894;2022-09-06T03:10:28;100657.34;;;16.69;85.46
13690;BME280;6917;52.194;9.894;2022-09-06T03:12:53;100654.59;;;16.69;85.31
13690;BME280;6917;52.194;9.894;2022-09-06T03:15:18;100648.34;;;16.59;85.43
13690;BME280;6917;52.194;9.894;2022-09-06T03:17:44;100656.88;;;16.54;85.57
13690;BME280;6917;52.194;9.894;2022-09-06T03:20:10;100661.94;;;16.52;85.60
13690;BME280;6917;52.194;9.894;2022-09-06T03:22:36;100665.84;;;16.51;85.23
13690;BME280;6917;52.194;9.894;2022-09-06T03:25:04;100660.31;;;16.51;85.20
13690;BME280;6917;52.194;9.894;2022-09-06T03:27:29;100657.13;;;16.49;85.02
13690;BME280;6917;52.194;9.894;2022-09-06T03:29:54;100650.31;;;16.47;84.45
13690;BME280;6917;52.194;9.894;2022-09-06T03:32:20;100644.69;;;16.43;84.50
13690;BME280;6917;52.194;9.894;2022-09-06T03:34:45;100641.94;;;16.43;83.64
13690;BME280;6917;52.194;9.894;2022-09-06T03:37:10;100642.63;;;16.40;83.69
13690;BME280;6917;52.194;9.894;2022-09-06T03:39:36;100637.47;;;16.39;83.15
13690;BME280;6917;52.194;9.894;2022-09-06T03:42:01;100642.19;;;16.38;82.77
13690;BME280;6917;52.194;9.894;2022-09-06T03:44:26;100647.00;;;16.41;82.57
13690;BME280;6917;52.194;9.894;2022-09-06T03:46:51;100650.91;;;16.40;81.84
13690;BME280;6917;52.194;9.894;2022-09-06T03:49:17;100654.56;;;16.44;81.28
13690;BME280;6917;52.194;9.894;2022-09-06T03:51:42;100660.09;;;16.44;81.61
13690;BME280;6917;52.194;9.894;2022-09-06T03:54:08;100665.16;;;16.42;81.12
13690;BME280;6917;52.194;9.894;2022-09-06T03:56:33;100667.91;;;16.42;81.47
13690;BME280;6917;52.194;9.894;2022-09-06T03:58:59;100666.06;;;16.34;81.47
13690;BME280;6917;52.194;9.894;2022-09-06T04:01:25;100673.31;;;16.39;80.86
13690;BME280;6917;52.194;9.894;2022-09-06T04:03:50;100676.97;;;16.43;80.43
13690;BME280;6917;52.194;9.894;2022-09-06T04:06:16;100675.63;;;16.36;80.60
13690;BME280;6917;52.194;9.894;2022-09-06T04:08:41;100668.50;;;16.35;80.71
13690;BME280;6917;52.194;9.894;2022-09-06T04:11:06;100663.28;;;16.34;80.84
13690;BME280;6917;52.194;9.894;2022-09-06T04:13:33;100654.81;;;16.27;80.72
13690;BME280;6917;52.194;9.894;2022-09-06T04:15:58;100663.06;;;16.27;80.51
13690;BME280;6917;52.194;9.894;2022-09-06T04:18:24;100650.44;;;16.26;80.38
13690;BME280;6917;52.194;9.894;2022-09-06T04:20:51;100654.25;;;16.21;80.80
13690;BME280;6917;52.194;9.894;2022-09-06T04:23:18;100658.00;;;16.17;80.80
13690;BME280;6917;52.194;9.894;2022-09-06T04:25:48;100661.81;;;16.12;80.90
13690;BME280;6917;52.194;9.894;2022-09-06T04:28:14;100660.19;;;16.11;81.22
13690;BME280;6917;52.194;9.894;2022-09-06T04:30:40;100664.00;;;16.06;81.69
13690;BME280;6917;52.194;9.894;2022-09-06T04:33:05;100654.09;;;16.05;81.20
13690;BME280;6917;52.194;9.894;2022-09-06T04:35:31;100652.63;;;16.08;81.54
13690;BME280;6917;52.194;9.894;2022-09-06T04:37:59;100657.69;;;16.06;81.65
13690;BME280;6917;52.194;9.894;2022-09-06T04:40:25;100645.38;;;16.03;81.54
13690;BME280;6917;52.194;9.894;2022-09-06T04:42:50;100642.94;;;16.02;81.02
13690;BME280;6917;52.194;9.894;2022-09-06T04:45:16;100642.50;;;16.00;81.04
13690;BME280;6917;52.194;9.894;2022-09-06T04:47:41;100644.34;;;15.96;80.95
13690;BME280;6917;52.194;9.894;2022-09-06T04:50:07;100637.56;;;15.93;81.12
13690;BME280;6917;52.194;9.894;2022-09-06T04:52:32;100645.47;;;15.95;80.83
13690;BME280;6917;52.194;9.894;2022-09-06T04:54:57;100643.06;;;15.93;81.17
13690;BME280;6917;52.194;9.894;2022-09-06T04:57:23;100647.78;;;15.93;80.70
13690;BME280;6917;52.194;9.894;2022-09-06T04:59:48;100642.72;;;15.95;80.71
13690;BME280;6917;52.194;9.894;2022-09-06T05:02:13;100634.34;;;15.91;80.78
13690;BME280;6917;52.194;9.894;2022-09-06T05:04:38;100632.41;;;15.92;81.13
13690;BME280;6917;52.194;9.894;2022-09-06T05:07:06;100645.69;;;15.90;80.95
13690;BME280;6917;52.194;9.894;2022-09-06T05:09:32;100643.53;;;15.95;80.31
13690;BME280;6917;52.194;9.894;2022-09-06T05:11:58;100645.94;;;15.97;80.55
13690;BME280;6917;52.194;9.894;2022-09-06T05:14:24;100656.16;;;15.96;81.11
13690;BME280;6917;52.194;9.894;2022-09-06T05:16:50;100643.53;;;15.95;80.87
13690;BME280;6917;52.194;9.894;2022-09-06T05:19:16;100632.72;;;15.90;80.25
13690;BME280;6917;52.194;9.894;2022-09-06T05:21:41;100642.72;;;15.95;80.83
13690;BME280;6917;52.194;9.894;2022-09-06T05:24:07;100647.66;;;15.89;80.37
13690;BME280;6917;52.194;9.894;2022-09-06T05:26:32;100651.53;;;15.88;80.54
13690;BME280;6917;52.194;9.894;2022-09-06T05:28:57;100658.00;;;15.92;80.48
13690;BME280;6917;52.194;9.894;2022-09-06T05:31:32;100658.91;;;15.96;80.40
13690;BME280;6917;52.194;9.894;2022-09-06T05:33:58;100658.81;;;15.93;80.38
13690;BME280;6917;52.194;9.894;2022-09-06T05:36:25;100657.84;;;15.89;80.80
13690;BME280;6917;52.194;9.894;2022-09-06T05:38:54;100648.56;;;15.81;81.32
13690;BME280;6917;52.194;9.894;2022-09-06T05:41:21;100648.09;;;15.79;81.78
13690;BME280;6917;52.194;9.894;2022-09-06T05:43:46;100644.88;;;15.77;81.33
13690;BME280;6917;52.194;9.894;2022-09-06T05:46:12;100642.00;;;15.73;81.23
13690;BME280;6917;52.194;9.894;2022-09-06T05:48:38;100635.91;;;15.68;81.57
13690;BME280;6917;52.194;9.894;2022-09-06T05:51:09;100640.28;;;15.69;81.98
13690;BME280;6917;52.194;9.894;2022-09-06T05:53:45;100644.75;;;15.73;81.68
13690;BME280;6917;52.194;9.894;2022-09-06T05:56:12;100640.72;;;15.71;81.30
13690;BME280;6917;52.194;9.894;2022-09-06T05:58:38;100638.31;;;15.69;80.97
13690;BME280;6917;52.194;9.894;2022-09-06T06:01:14;100641.41;;;15.68;81.21
13690;BME280;6917;52.194;9.894;2022-09-06T06:03:39;100630.97;;;15.73;80.61
13690;BME280;6917;52.194;9.894;2022-09-06T06:06:05;100635.34;;;15.74;80.81
13690;BME280;6917;52.194;9.894;2022-09-06T06:08:30;100645.34;;;15.79;80.25
13690;BME280;6917;52.194;9.894;2022-09-06T06:10:59;100653.63;;;15.79;80.32
13690;BME280;6917;52.194;9.894;2022-09-06T06:13:26;100651.31;;;15.81;80.20
13690;BME280;6917;52.194;9.894;2022-09-06T06:15:52;100651.53;;;15.88;79.50
13690;BME280;6917;52.194;9.894;2022-09-06T06:18:17;100660.75;;;15.92;79.75
13690;BME280;6917;52.194;9.894;2022-09-06T06:20:43;100660.28;;;15.90;79.72
13690;BME280;6917;52.194;9.894;2022-09-06T06:23:08;100668.44;;;15.99;78.87
13690;BME280;6917;52.194;9.894;2022-09-06T06:25:33;100685.09;;;16.02;79.03
13690;BME280;6917;52.194;9.894;2022-09-06T06:27:59;100680.53;;;16.06;78.97
13690;BME280;6917;52.194;9.894;2022-09-06T06:30:24;100671.56;;;15.97;78.92
13690;BME280;6917;52.194;9.894;2022-09-06T06:32:49;100676.25;;;15.97;78.73
13690;BME280;6917;52.194;9.894;2022-09-06T06:35:14;100687.06;;;16.02;78.98
13690;BME280;6917;52.194;9.894;2022-09-06T06:37:40;100694.97;;;16.03;79.01
13690;BME280;6917;52.194;9.894;2022-09-06T06:40:07;100697.88;;;16.07;79.02
13690;BME280;6917;52.194;9.894;2022-09-06T06:42:32;100697.28;;;16.14;79.19
13690;BME280;6917;52.194;9.894;2022-09-06T06:44:57;100692.94;;;16.13;78.82
13690;BME280;6917;52.194;9.894;2022-09-06T06:47:23;100684.09;;;16.07;79.31
13690;BME280;6917;52.194;9.894;2022-09-06T06:49:48;100686.63;;;16.12;78.51
13690;BME280;6917;52.194;9.894;2022-09-06T06:52:13;100693.63;;;16.10;78.67
13690;BME280;6917;52.194;9.894;2022-09-06T06:54:39;100697.28;;;16.14;78.93
13690;BME280;6917;52.194;9.894;2022-09-06T06:57:05;100695.56;;;16.09;78.89
13690;BME280;6917;52.194;9.894;2022-09-06T06:59:33;100695.13;;;16.07;78.87
13690;BME280;6917;52.194;9.894;2022-09-06T07:01:59;100693.16;;;16.08;78.95
13690;BME280;6917;52.194;9.894;2022-09-06T07:04:24;100705.09;;;16.12;78.48
13690;BME280;6917;52.194;9.894;2022-09-06T07:06:51;100710.72;;;16.15;78.60
13690;BME280;6917;52.194;9.894;2022-09-06T07:09:18;100702.81;;;16.14;78.43
13690;BME280;6917;52.194;9.894;2022-09-06T07:11:44;100699.00;;;16.18;78.54
13690;BME280;6917;52.194;9.894;2022-09-06T07:14:10;100703.72;;;16.18;77.92
13690;BME280;6917;52.194;9.894;2022-09-06T07:16:35;100708.56;;;16.21;77.78
13690;BME280;6917;52.194;9.894;2022-09-06T07:19:00;100713.50;;;16.27;77.99
13690;BME280;6917;52.194;9.894;2022-09-06T07:21:26;100711.56;;;16.28;77.42
13690;BME280;6917;52.194;9.894;2022-09-06T07:23:52;100696.28;;;16.30;77.41
13690;BME280;6917;52.194;9.894;2022-09-06T07:26:28;100691.00;;;16.25;76.82
13690;BME280;6917;52.194;9.894;2022-09-06T07:28:59;100703.28;;;16.28;76.79
13690;BME280;6917;52.194;9.894;2022-09-06T07:31:26;100710.06;;;16.30;76.79
13690;BME280;6917;52.194;9.894;2022-09-06T07:33:51;100706.50;;;16.30;76.83
13690;BME280;6917;52.194;9.894;2022-09-06T07:36:16;100701.91;;;16.34;76.49
13690;BME280;6917;52.194;9.894;2022-09-06T07:38:42;100700.78;;;16.35;76.78
13690;BME280;6917;52.194;9.894;2022-09-06T07:41:09;100696.06;;;16.35;76.22
13690;BME280;6917;52.194;9.894;2022-09-06T07:43:35;100701.09;;;16.33;76.23
13690;BME280;6917;52.194;9.894;2022-09-06T07:46:04;100701.34;;;16.41;76.36
13690;BME280;6917;52.194;9.894;2022-09-06T07:48:31;100708.13;;;16.43;75.92
13690;BME280;6917;52.194;9.894;2022-09-06T07:51:06;100709.53;;;16.49;75.71
13690;BME280;6917;52.194;9.894;2022-09-06T07:53:33;100713.88;;;16.50;75.14
13690;BME280;6917;52.194;9.894;2022-09-06T07:56:00;100698.50;;;16.49;75.52
13690;BME280;6917;52.194;9.894;2022-09-06T07:58:27;100692.28;;;16.52;75.27
13690;BME280;6917;52.194;9.894;2022-09-06T08:00:53;100698.00;;;16.59;75.57
13690;BME280;6917;52.194;9.894;2022-09-06T08:03:18;100700.19;;;16.66;75.22
13690;BME280;6917;52.194;9.894;2022-09-06T08:05:47;100709.41;;;16.70;75.44
13690;BME280;6917;52.194;9.894;2022-09-06T08:08:13;100718.16;;;16.72;75.12
13690;BME280;6917;52.194;9.894;2022-09-06T08:10:38;100713.53;;;16.64;75.24
13690;BME280;6917;52.194;9.894;2022-09-06T08:13:03;100709.50;;;16.61;75.59
13690;BME280;6917;52.194;9.894;2022-09-06T08:15:29;100719.06;;;16.64;75.64
13690;BME280;6917;52.194;9.894;2022-09-06T08:17:55;100709.88;;;16.72;75.59
13690;BME280;6917;52.194;9.894;2022-09-06T08:20:21;100701.47;;;16.81;75.38
13690;BME280;6917;52.194;9.894;2022-09-06T08:22:46;100715.25;;;16.93;74.88
13690;BME280;6917;52.194;9.894;2022-09-06T08:25:11;100703.34;;;17.17;74.06
13690;BME280;6917;52.194;9.894;2022-09-06T08:27:37;100701.09;;;17.35;73.44
13690;BME280;6917;52.194;9.894;2022-09-06T08:30:03;100701.00;;;17.31;73.05
13690;BME280;6917;52.194;9.894;2022-09-06T08:32:32;100693.06;;;17.30;73.73
13690;BME280;6917;52.194;9.894;2022-09-06T08:34:58;100697.44;;;17.31;73.65
13690;BME280;6917;52.194;9.894;2022-09-06T08:37:23;100698.88;;;17.52;73.37
13690;BME280;6917;52.194;9.894;2022-09-06T08:39:48;100708.13;;;17.72;72.98
13690;BME280;6917;52.194;9.894;2022-09-06T08:42:14;100703.72;;;17.99;71.93
13690;BME280;6917;52.194;9.894;2022-09-06T08:44:45;100697.06;;;17.72;72.08
13690;BME280;6917;52.194;9.894;2022-09-06T08:47:13;100697.75;;;18.13;72.19
13690;BME280;6917;52.194;9.894;2022-09-06T08:49:44;100692.22;;;17.97;70.62
13690;BME280;6917;52.194;9.894;2022-09-06T08:54:54;100680.06;;;18.02;70.47
13690;BME280;6917;52.194;9.894;2022-09-06T09:00:07;100671.16;;;18.24;70.89
13690;BME280;6917;52.194;9.894;2022-09-06T09:03:10;100667.94;;;18.22;70.56
13690;BME280;6917;52.194;9.894;2022-09-06T09:05:38;100673.22;;;18.27;70.59
13690;BME280;6917;52.194;9.894;2022-09-06T09:08:11;100674.00;;;18.28;70.16
13690;BME280;6917;52.194;9.894;2022-09-06T09:10:44;100684.81;;;18.17;70.47
13690;BME280;6917;52.194;9.894;2022-09-06T09:13:33;100674.00;;;18.43;70.43
13690;BME280;6917;52.194;9.894;2022-09-06T09:15:59;100684.34;;;18.47;69.17
13690;BME280;6917;52.194;9.894;2022-09-06T09:18:28;100686.50;;;18.53;69.15
13690;BME280;6917;52.194;9.894;2022-09-06T09:20:56;100683.81;;;18.72;68.88
13690;BME280;6917;52.194;9.894;2022-09-06T09:23:22;100682.63;;;18.73;68.32
13690;BME280;6917;52.194;9.894;2022-09-06T09:25:48;100679.53;;;18.94;68.28
13690;BME280;6917;52.194;9.894;2022-09-06T09:28:18;100666.72;;;18.86;68.33
13690;BME280;6917;52.194;9.894;2022-09-06T09:30:47;100668.88;;;19.12;67.96
13690;BME280;6917;52.194;9.894;2022-09-06T09:33:26;100666.19;;;19.54;67.29
13690;BME280;6917;52.194;9.894;2022-09-06T09:35:53;100663.63;;;19.26;67.06
13690;BME280;6917;52.194;9.894;2022-09-06T09:38:21;100652.22;;;19.31;67.39
13690;BME280;6917;52.194;9.894;2022-09-06T09:41:01;100645.50;;;19.52;67.05
13690;BME280;6917;52.194;9.894;2022-09-06T09:43:39;100640.78;;;19.33;66.66
13690;BME280;6917;52.194;9.894;2022-09-06T09:49:09;100627.50;;;19.23;66.31
13690;BME280;6917;52.194;9.894;2022-09-06T09:51:40;100625.97;;;19.45;65.79
13690;BME280;6917;52.194;9.894;2022-09-06T09:54:08;100627.38;;;19.54;65.87
13690;BME280;6917;52.194;9.894;2022-09-06T09:59:26;100629.38;;;20.00;64.21
13690;BME280;6917;52.194;9.894;2022-09-06T10:02:00;100618.22;;;19.73;63.98
13690;BME280;6917;52.194;9.894;2022-09-06T10:07:07;100632.56;;;19.79;64.05
13690;BME280;6917;52.194;9.894;2022-09-06T10:09:38;100625.66;;;19.92;63.90
13690;BME280;6917;52.194;9.894;2022-09-06T10:12:05;100626.97;;;19.98;64.08
13690;BME280;6917;52.194;9.894;2022-09-06T10:14:42;100625.22;;;19.90;63.88
13690;BME280;6917;52.194;9.894;2022-09-06T10:17:17;100611.41;;;19.94;63.42
13690;BME280;6917;52.194;9.894;2022-09-06T10:19:43;100624.91;;;19.95;63.67
13690;BME280;6917;52.194;9.894;2022-09-06T10:22:28;100626.50;;;19.96;63.76
13690;BME280;6917;52.194;9.894;2022-09-06T10:27:31;100626.63;;;20.26;63.31
13690;BME280;6917;52.194;9.894;2022-09-06T10:30:06;100634.09;;;20.22;63.17
13690;BME280;6917;52.194;9.894;2022-09-06T10:32:48;100634.22;;;20.29;63.36
13690;BME280;6917;52.194;9.894;2022-09-06T10:43:39;100611.75;;;20.11;63.47
13690;BME280;6917;52.194;9.894;2022-09-06T10:46:14;100616.13;;;20.12;63.33
13690;BME280;6917;52.194;9.894;2022-09-06T10:48:41;100607.03;;;20.15;63.75
13690;BME280;6917;52.194;9.894;2022-09-06T10:51:36;100608.09;;;20.34;63.21
13690;BME280;6917;52.194;9.894;2022-09-06T10:54:06;100614.16;;;20.66;62.90
13690;BME280;6917;52.194;9.894;2022-09-06T10:56:43;100608.31;;;21.04;61.49
13690;BME280;6917;52.194;9.894;2022-09-06T10:59:35;100609.25;;;21.16;60.44
13690;BME280;6917;52.194;9.894;2022-09-06T11:05:11;100598.16;;;21.53;59.88
13690;BME280;6917;52.194;9.894;2022-09-06T11:07:42;100597.59;;;21.77;59.81
13690;BME280;6917;52.194;9.894;2022-09-06T11:10:30;100589.94;;;21.67;58.90
13690;BME280;6917;52.194;9.894;2022-09-06T11:13:08;100587.84;;;21.53;59.35
13690;BME280;6917;52.194;9.894;2022-09-06T11:16:13;100590.47;;;21.80;59.68
13690;BME280;6917;52.194;9.894;2022-09-06T11:18:38;100594.25;;;22.02;59.01
13690;BME280;6917;52.194;9.894;2022-09-06T11:21:11;100582.34;;;22.05;58.57
13690;BME280;6917;52.194;9.894;2022-09-06T11:26:42;100575.84;;;21.86;58.21
13690;BME280;6917;52.194;9.894;2022-09-06T11:29:15;100574.13;;;21.75;58.74
13690;BME280;6917;52.194;9.894;2022-09-06T11:31:56;100563.44;;;21.77;58.87
13690;BME280;6917;52.194;9.894;2022-09-06T11:34:33;100560.53;;;22.10;58.36
13690;BME280;6917;52.194;9.894;2022-09-06T11:37:24;100562.34;;;21.92;58.75
13690;BME280;6917;52.194;9.894;2022-09-06T11:40:03;100551.63;;;21.94;58.40
13690;BME280;6917;52.194;9.894;2022-09-06T11:45:51;100553.84;;;22.22;57.89
13690;BME280;6917;52.194;9.894;2022-09-06T11:53:29;100547.09;;;22.23;57.95
13690;BME280;6917;52.194;9.894;2022-09-06T11:58:29;100541.75;;;22.66;56.88
13690;BME280;6917;52.194;9.894;2022-09-06T12:06:21;100540.34;;;23.00;56.57
13690;BME280;6917;52.194;9.894;2022-09-06T12:08:48;100545.09;;;22.89;56.49
13690;BME280;6917;52.194;9.894;2022-09-06T12:11:42;100545.53;;;23.05;56.71
13690;BME280;6917;52.194;9.894;2022-09-06T12:14:31;100547.22;;;23.49;55.60
13690;BME280;6917;52.194;9.894;2022-09-06T12:19:48;100532.09;;;23.82;54.43
13690;BME280;6917;52.194;9.894;2022-09-06T12:24:56;100539.25;;;24.08;54.26
13690;BME280;6917;52.194;9.894;2022-09-06T12:27:36;100528.06;;;24.22;54.00
13690;BME280;6917;52.194;9.894;2022-09-06T12:30:10;100524.84;;;24.42;53.57
13690;BME280;6917;52.194;9.894;2022-09-06T12:32:37;100528.91;;;24.01;54.00
13690;BME280;6917;52.194;9.894;2022-09-06T12:35:11;100518.56;;;24.02;54.18
13690;BME280;6917;52.194;9.894;2022-09-06T12:37:50;100516.50;;;24.20;53.75
13690;BME280;6917;52.194;9.894;2022-09-06T12:40:18;100508.94;;;24.31;53.46
13690;BME280;6917;52.194;9.894;2022-09-06T12:42:46;100510.94;;;24.31;54.37
13690;BME280;6917;52.194;9.894;2022-09-06T12:45:12;100497.28;;;24.51;54.02
13690;BME280;6917;52.194;9.894;2022-09-06T12:47:37;100505.28;;;24.42;53.51
13690;BME280;6917;52.194;9.894;2022-09-06T12:50:17;100511.59;;;24.67;52.98
13690;BME280;6917;52.194;9.894;2022-09-06T12:52:53;100498.88;;;24.55;52.98
13690;BME280;6917;52.194;9.894;2022-09-06T12:55:29;100498.50;;;24.50;53.40
13690;BME280;6917;52.194;9.894;2022-09-06T12:57:59;100490.09;;;24.53;53.45
13690;BME280;6917;52.194;9.894;2022-09-06T13:00:33;100493.72;;;24.50;53.22
13690;BME280;6917;52.194;9.894;2022-09-06T13:03:23;100490.88;;;24.54;53.04
13690;BME280;6917;52.194;9.894;2022-09-06T13:05:51;100486.06;;;24.65;52.52
13690;BME280;6917;52.194;9.894;2022-09-06T13:08:37;100488.03;;;24.68;53.03
13690;BME280;6917;52.194;9.894;2022-09-06T13:11:08;100482.25;;;25.07;52.45
13690;BME280;6917;52.194;9.894;2022-09-06T13:13:35;100474.63;;;25.11;51.51
13690;BME280;6917;52.194;9.894;2022-09-06T13:16:00;100480.16;;;25.22;51.70
13690;BME280;6917;52.194;9.894;2022-09-06T13:18:35;100474.59;;;25.18;51.58
13690;BME280;6917;52.194;9.894;2022-09-06T13:21:10;100471.66;;;25.36;52.10
13690;BME280;6917;52.194;9.894;2022-09-06T13:23:45;100468.34;;;25.52;50.35
13690;BME280;6917;52.194;9.894;2022-09-06T13:26:12;100461.53;;;24.98;51.50
13690;BME280;6917;52.194;9.894;2022-09-06T13:28:37;100472.50;;;25.33;51.23
13690;BME280;6917;52.194;9.894;2022-09-06T13:31:20;100463.28;;;25.36;51.39
13690;BME280;6917;52.194;9.894;2022-09-06T13:33:54;100456.41;;;25.44;50.92
13690;BME280;6917;52.194;9.894;2022-09-06T13:36:31;100457.16;;;25.52;50.56
13690;BME280;6917;52.194;9.894;2022-09-06T13:38:57;100455.31;;;25.35;51.32
13690;BME280;6917;52.194;9.894;2022-09-06T13:46:21;100451.47;;;25.59;50.82
13690;BME280;6917;52.194;9.894;2022-09-06T13:48:46;100443.91;;;25.56;50.48
13690;BME280;6917;52.194;9.894;2022-09-06T13:51:12;100435.13;;;25.54;50.29
13690;BME280;6917;52.194;9.894;2022-09-06T13:53:37;100442.69;;;25.57;50.96
13690;BME280;6917;52.194;9.894;2022-09-06T13:56:02;100434.22;;;25.68;51.03
13690;BME280;6917;52.194;9.894;2022-09-06T13:58:27;100422.03;;;25.89;50.41
13690;BME280;6917;52.194;9.894;2022-09-06T14:00:53;100432.28;;;25.61;50.45
13690;BME280;6917;52.194;9.894;2022-09-06T14:03:26;100421.78;;;25.72;50.21
13690;BME280;6917;52.194;9.894;2022-09-06T14:05:52;100426.16;;;25.77;50.53
13690;BME280;6917;52.194;9.894;2022-09-06T14:08:19;100427.97;;;25.53;50.41
13690;BME280;6917;52.194;9.894;2022-09-06T14:10:45;100424.50;;;25.38;50.81
13690;BME280;6917;52.194;9.894;2022-09-06T14:13:12;100431.59;;;25.50;50.69
13690;BME280;6917;52.194;9.894;2022-09-06T14:15:37;100429.78;;;25.74;50.51
13690;BME280;6917;52.194;9.894;2022-09-06T14:18:03;100425.84;;;26.05;50.87
13690;BME280;6917;52.194;9.894;2022-09-06T14:20:28;100422.28;;;26.01;49.34
13690;BME280;6917;52.194;9.894;2022-09-06T14:22:54;100421.47;;;26.04;49.76
13690;BME280;6917;52.194;9.894;2022-09-06T14:25:19;100427.81;;;26.08;49.39
13690;BME280;6917;52.194;9.894;2022-09-06T14:27:44;100419.25;;;26.23;49.65
13690;BME280;6917;52.194;9.894;2022-09-06T14:30:12;100421.09;;;26.36;49.40
13690;BME280;6917;52.194;9.894;2022-09-06T14:32:37;100413.22;;;26.24;48.98
13690;BME280;6917;52.194;9.894;2022-09-06T14:35:03;100413.38;;;26.44;49.21
13690;BME280;6917;52.194;9.894;2022-09-06T14:37:30;100401.63;;;25.92;49.58